Time;durP1;ratioP1;P1;durP2;ratioP2;P2;SDS_P1;SDS_P2;PMS_P1;PMS_P2;Temp;Humidity;BMP_temperature;BMP_pressure;BME280_temperature;BME280_humidity;BME280_pressure;Samples;Min_cycle;Max_cycle;Signal;HPM_P1;HPM_P2
2023/10/10 00:01:03;;;;;;;15.93;8.00;;;13.90;99.90;;;;;;5076609;28;20446;-48
2023/10/10 00:03:31;;;;;;;11.20;7.00;;;13.90;99.90;;;;;;5076633;28;20930;-47
2023/10/10 00:06:06;;;;;;;13.07;8.23;;;13.90;99.90;;;;;;5076956;28;20412;-48
2023/10/10 00:08:40;;;;;;;10.13;7.50;;;13.80;99.90;;;;;;5076817;28;20873;-47
2023/10/10 00:11:09;;;;;;;16.17;8.67;;;13.80;99.90;;;;;;5076305;28;20456;-49
2023/10/10 00:13:46;;;;;;;16.87;9.10;;;13.80;99.90;;;;;;5076243;28;20777;-48
2023/10/10 00:16:25;;;;;;;17.83;9.87;;;13.80;99.90;;;;;;5076090;28;20411;-47
2023/10/10 00:18:55;;;;;;;20.13;9.60;;;13.80;99.90;;;;;;5076249;28;21038;-47
2023/10/10 00:21:24;;;;;;;22.93;10.27;;;13.80;99.90;;;;;;5076193;28;20495;-47
2023/10/10 00:23:50;;;;;;;21.77;10.00;;;13.80;99.90;;;;;;5076038;28;20872;-47
2023/10/10 00:26:22;;;;;;;14.70;10.40;;;13.70;99.90;;;;;;5076028;28;20457;-47
2023/10/10 00:28:54;;;;;;;28.70;11.63;;;13.70;99.90;;;;;;5076118;28;20412;-47
2023/10/10 00:31:23;;;;;;;22.03;11.30;;;13.60;99.90;;;;;;5075905;28;20899;-47
2023/10/10 00:33:51;;;;;;;16.30;11.10;;;13.60;99.90;;;;;;5075845;28;20460;-47
2023/10/10 00:36:22;;;;;;;21.87;11.07;;;13.60;99.90;;;;;;5075900;28;20998;-47
2023/10/10 00:38:57;;;;;;;21.03;11.33;;;13.50;99.90;;;;;;5076179;28;20811;-46
2023/10/10 00:41:24;;;;;;;20.90;11.23;;;13.50;99.90;;;;;;5076085;28;20415;-47
2023/10/10 00:43:49;;;;;;;15.43;10.83;;;13.50;99.90;;;;;;5076158;28;20446;-47
2023/10/10 00:46:15;;;;;;;24.33;11.30;;;13.50;99.90;;;;;;5075413;28;20419;-47
2023/10/10 00:48:44;;;;;;;24.37;11.57;;;13.50;99.90;;;;;;5075960;28;20530;-46
2023/10/10 00:51:20;;;;;;;21.80;11.20;;;13.40;99.90;;;;;;5075862;28;20207;-47
2023/10/10 00:54:08;;;;;;;19.63;10.70;;;13.40;99.90;;;;;;5075490;28;20455;-47
2023/10/10 00:56:35;;;;;;;23.47;11.50;;;13.40;99.90;;;;;;5074542;28;20782;-47
2023/10/10 00:59:03;;;;;;;21.40;11.37;;;13.40;99.90;;;;;;5075683;28;20432;-50
2023/10/10 01:01:29;;;;;;;22.23;11.60;;;13.40;99.90;;;;;;5075491;28;20456;-47
2023/10/10 01:03:54;;;;;;;21.87;12.63;;;13.30;99.90;;;;;;5075582;28;20475;-47
2023/10/10 01:06:24;;;;;;;20.63;11.30;;;13.30;99.90;;;;;;5075180;28;20200;-47
2023/10/10 01:11:42;;;;;;;24.23;11.00;;;13.20;99.90;;;;;;5075146;28;20827;-46
2023/10/10 01:14:08;;;;;;;18.00;10.57;;;13.20;99.90;;;;;;5074668;28;20846;-47
2023/10/10 01:16:33;;;;;;;22.07;12.50;;;13.10;99.90;;;;;;5075227;28;20431;-47
2023/10/10 01:18:59;;;;;;;28.53;15.60;;;13.10;99.90;;;;;;5075167;28;20178;-47
2023/10/10 01:21:42;;;;;;;28.83;14.53;;;13.00;99.90;;;;;;5075131;28;20794;-47
2023/10/10 01:24:09;;;;;;;26.20;14.67;;;13.00;99.90;;;;;;5074830;28;20328;-46
2023/10/10 01:26:38;;;;;;;22.00;13.70;;;13.00;99.90;;;;;;5075003;28;20896;-46
2023/10/10 01:31:51;;;;;;;28.57;15.57;;;13.00;99.90;;;;;;5074944;28;20399;-48
2023/10/10 01:34:51;;;;;;;26.00;15.77;;;13.00;99.90;;;;;;5074928;28;20438;-47
2023/10/10 01:39:47;;;;;;;28.80;16.30;;;12.90;99.90;;;;;;5075035;28;20426;-46
2023/10/10 01:42:13;;;;;;;30.50;16.33;;;12.90;99.90;;;;;;5074809;28;20408;-46
2023/10/10 01:44:39;;;;;;;28.23;16.57;;;12.90;99.90;;;;;;5074659;28;20937;-46
2023/10/10 01:47:18;;;;;;;28.77;16.50;;;12.90;99.90;;;;;;5074835;28;20447;-46
2023/10/10 01:49:45;;;;;;;27.83;15.70;;;12.80;99.90;;;;;;5074594;28;20641;-47
2023/10/10 01:52:12;;;;;;;28.53;15.77;;;12.80;99.90;;;;;;5074162;28;20420;-46
2023/10/10 01:54:41;;;;;;;27.00;14.30;;;12.80;99.90;;;;;;5074694;28;20495;-48
2023/10/10 01:57:09;;;;;;;27.87;15.17;;;12.70;99.90;;;;;;5074675;28;20423;-47
2023/10/10 01:59:35;;;;;;;31.30;16.60;;;12.70;99.90;;;;;;5074375;28;20409;-47
2023/10/10 02:02:08;;;;;;;28.10;15.53;;;12.70;99.90;;;;;;5074338;28;20415;-47
2023/10/10 02:04:35;;;;;;;29.77;14.40;;;12.60;99.90;;;;;;5074182;28;20403;-47
2023/10/10 02:07:06;;;;;;;29.63;15.87;;;12.60;99.90;;;;;;5073821;28;20414;-48
2023/10/10 02:09:35;;;;;;;29.93;15.00;;;12.60;99.90;;;;;;5073917;28;20873;-47
2023/10/10 02:12:17;;;;;;;28.87;14.13;;;12.60;99.90;;;;;;5074097;28;20427;-47
2023/10/10 02:14:43;;;;;;;30.03;13.77;;;12.60;99.90;;;;;;5074116;28;20423;-47
2023/10/10 02:17:20;;;;;;;30.43;15.67;;;12.70;99.90;;;;;;5074307;28;20407;-47
2023/10/10 02:19:54;;;;;;;32.43;15.23;;;12.70;99.90;;;;;;5073936;28;20415;-47
2023/10/10 02:22:47;;;;;;;30.33;14.60;;;12.70;99.90;;;;;;5074031;28;20513;-47
2023/10/10 02:27:55;;;;;;;30.23;14.27;;;12.70;99.90;;;;;;5074379;28;20449;-47
2023/10/10 02:30:34;;;;;;;30.17;15.13;;;12.70;99.90;;;;;;5074048;28;20446;-48
2023/10/10 02:33:14;;;;;;;30.50;14.83;;;12.60;99.90;;;;;;5073482;28;20465;-48
2023/10/10 02:38:18;;;;;;;31.20;15.40;;;12.60;99.90;;;;;;5074058;28;20411;-46
2023/10/10 02:40:43;;;;;;;30.47;13.93;;;12.60;99.90;;;;;;5073703;28;20424;-46
2023/10/10 02:43:33;;;;;;;31.30;15.60;;;12.60;99.90;;;;;;5073659;28;20185;-50
2023/10/10 02:45:58;;;;;;;33.87;14.90;;;12.60;99.90;;;;;;5073551;28;20174;-47
2023/10/10 02:48:26;;;;;;;35.10;15.30;;;12.70;99.90;;;;;;5073359;28;20553;-47
2023/10/10 02:50:52;;;;;;;28.93;13.60;;;12.60;99.90;;;;;;5073007;28;20747;-47
2023/10/10 02:53:19;;;;;;;33.73;14.77;;;12.70;99.90;;;;;;5073781;28;20471;-46
2023/10/10 02:55:50;;;;;;;32.67;14.50;;;12.60;99.90;;;;;;5073287;28;20493;-46
2023/10/10 02:58:27;;;;;;;31.20;13.53;;;12.60;99.90;;;;;;5073416;28;20412;-46
2023/10/10 03:00:57;;;;;;;35.70;15.10;;;12.60;99.90;;;;;;5073370;28;20769;-47
2023/10/10 03:03:26;;;;;;;34.27;14.50;;;12.60;99.90;;;;;;5073530;28;20421;-46
2023/10/10 03:05:51;;;;;;;36.03;15.83;;;12.50;99.90;;;;;;5073444;28;20420;-48
2023/10/10 03:11:01;;;;;;;28.90;13.87;;;12.50;99.90;;;;;;5073629;28;20167;-47
2023/10/10 03:13:35;;;;;;;33.67;14.07;;;12.50;99.90;;;;;;5071760;28;20473;-46
2023/10/10 03:24:15;;;;;;;29.90;12.83;;;12.40;99.90;;;;;;5077322;28;20255;-47
2023/10/10 03:29:11;;;;;;;28.13;13.33;;;12.40;99.90;;;;;;5077210;28;20521;-47
2023/10/10 03:31:47;;;;;;;37.33;16.27;;;12.40;99.90;;;;;;5077003;28;20474;-46
2023/10/10 03:36:45;;;;;;;31.03;13.90;;;12.40;99.90;;;;;;5076969;28;20402;-47
2023/10/10 05:25:44;;;;;;;68.70;22.17;;;12.80;99.90;;;;;;5074849;28;20974;-47
2023/10/10 05:28:10;;;;;;;74.77;20.93;;;12.80;99.90;;;;;;5075247;28;20471;-47
2023/10/10 05:30:45;;;;;;;65.10;20.80;;;12.80;99.90;;;;;;5074539;28;20637;-48
2023/10/10 05:33:12;;;;;;;57.30;19.77;;;12.80;99.90;;;;;;5074829;28;20197;-48
2023/10/10 05:35:48;;;;;;;75.30;19.83;;;12.80;99.90;;;;;;5074623;28;20415;-48
2023/10/10 05:38:17;;;;;;;65.53;20.20;;;12.80;99.90;;;;;;5074855;28;20412;-47
2023/10/10 05:40:43;;;;;;;68.67;19.73;;;12.90;99.90;;;;;;5074534;28;20424;-47
2023/10/10 05:43:14;;;;;;;82.03;21.57;;;12.90;99.90;;;;;;5074295;28;20438;-46
2023/10/10 05:45:40;;;;;;;66.00;20.80;;;12.90;99.90;;;;;;5074420;28;20771;-48
2023/10/10 05:48:06;;;;;;;51.00;17.87;;;12.90;99.90;;;;;;5074799;28;20417;-47
2023/10/10 05:50:34;;;;;;;63.47;20.50;;;12.90;99.90;;;;;;5074551;28;20181;-47
2023/10/10 05:53:06;;;;;;;69.37;20.77;;;12.90;99.90;;;;;;5074422;28;20274;-47
2023/10/10 05:55:37;;;;;;;55.63;18.23;;;12.90;99.90;;;;;;5074401;28;20424;-46
2023/10/10 05:58:03;;;;;;;76.70;21.50;;;13.00;99.90;;;;;;5074681;28;20471;-48
2023/10/10 06:00:36;;;;;;;76.07;21.07;;;13.00;99.90;;;;;;5074079;28;20410;-47
2023/10/10 06:03:05;;;;;;;63.67;18.57;;;13.00;99.90;;;;;;5074520;28;20863;-47
2023/10/10 06:05:34;;;;;;;59.07;19.17;;;13.00;99.90;;;;;;5074141;28;20509;-48
2023/10/10 06:08:01;;;;;;;55.40;18.60;;;13.00;99.90;;;;;;5073916;28;20896;-47
2023/10/10 06:10:31;;;;;;;66.83;19.33;;;13.00;99.90;;;;;;5073729;28;20415;-49
2023/10/10 06:12:58;;;;;;;78.07;21.23;;;13.10;99.90;;;;;;5074240;28;20496;-47
2023/10/10 06:15:24;;;;;;;76.20;20.63;;;13.10;99.90;;;;;;5073947;28;20424;-51
2023/10/10 06:17:49;;;;;;;82.47;22.10;;;13.10;99.90;;;;;;5086473;28;20440;-48
2023/10/10 06:20:21;;;;;;;69.63;19.90;;;13.10;99.90;;;;;;5084599;28;20189;-48
2023/10/10 06:22:48;;;;;;;59.13;18.40;;;13.10;99.90;;;;;;5085419;28;20197;-48
2023/10/10 06:25:17;;;;;;;77.63;21.10;;;13.20;99.90;;;;;;5084268;28;20503;-48
2023/10/10 06:27:54;;;;;;;73.73;22.43;;;13.20;99.90;;;;;;5086278;28;20457;-47
2023/10/10 06:30:26;;;;;;;62.90;19.03;;;13.30;99.90;;;;;;5087987;28;20829;-49
2023/10/10 06:32:58;;;;;;;61.67;19.90;;;13.30;99.90;;;;;;5084870;28;20482;-48
2023/10/10 06:37:54;;;;;;;72.17;20.50;;;13.30;99.90;;;;;;5085684;28;20442;-49
2023/10/10 06:40:30;;;;;;;63.23;18.47;;;13.40;99.90;;;;;;5084279;28;20446;-48
2023/10/10 06:42:56;;;;;;;72.00;21.97;;;13.40;99.90;;;;;;5083469;28;20510;-48
2023/10/10 06:45:31;;;;;;;70.53;21.10;;;13.40;99.90;;;;;;5083383;28;20430;-48
2023/10/10 06:47:56;;;;;;;58.57;20.73;;;13.50;99.90;;;;;;5082724;28;21071;-47
2023/10/10 06:50:22;;;;;;;74.97;20.73;;;13.60;99.90;;;;;;5084542;28;20514;-47
2023/10/10 06:52:52;;;;;;;72.43;20.87;;;13.70;99.90;;;;;;5083471;28;20241;-47
2023/10/10 06:55:22;;;;;;;75.07;23.83;;;13.70;99.90;;;;;;5083056;28;20197;-48
2023/10/10 06:57:58;;;;;;;70.30;23.10;;;13.80;99.90;;;;;;5081989;28;20816;-48
2023/10/10 07:00:28;;;;;;;69.87;23.13;;;13.80;99.90;;;;;;5085018;28;20431;-48
2023/10/10 07:02:55;;;;;;;57.63;20.47;;;13.90;99.90;;;;;;5083259;28;20443;-48
2023/10/10 07:05:26;;;;;;;53.63;21.70;;;14.00;99.90;;;;;;5086269;28;20431;-47
2023/10/10 07:07:57;;;;;;;56.77;19.97;;;14.00;99.90;;;;;;5084913;28;20464;-48
2023/10/10 07:10:32;;;;;;;47.93;17.03;;;14.00;99.90;;;;;;5082044;28;20451;-49
2023/10/10 07:13:02;;;;;;;47.30;15.73;;;14.10;99.90;;;;;;5082723;28;20463;-48
2023/10/10 07:15:37;;;;;;;38.27;15.50;;;14.10;99.90;;;;;;5086807;28;20538;-47
2023/10/10 07:18:14;;;;;;;39.83;15.17;;;14.10;99.90;;;;;;5084857;28;20496;-48
2023/10/10 07:23:37;;;;;;;31.57;12.93;;;14.20;99.90;;;;;;5083249;28;20440;-49
2023/10/10 07:26:05;;;;;;;31.07;13.70;;;14.20;99.90;;;;;;5085448;28;20480;-48
2023/10/10 07:28:47;;;;;;;32.67;13.90;;;14.20;99.90;;;;;;5082889;28;20512;-48
2023/10/10 07:31:17;;;;;;;27.00;12.30;;;14.20;99.90;;;;;;5083803;28;20450;-48
2023/10/10 07:33:54;;;;;;;31.73;12.83;;;14.30;99.90;;;;;;5083498;28;20472;-51
2023/10/10 07:36:24;;;;;;;25.87;11.77;;;14.30;99.90;;;;;;5084854;28;20535;-48
2023/10/10 07:38:54;;;;;;;24.33;11.00;;;14.30;99.90;;;;;;5082271;28;20451;-49
2023/10/10 07:41:21;;;;;;;23.30;11.17;;;14.30;99.90;;;;;;5082948;28;20898;-49
2023/10/10 07:43:49;;;;;;;19.27;10.80;;;14.40;99.90;;;;;;5084858;28;20488;-48
2023/10/10 07:46:22;;;;;;;25.10;10.03;;;14.40;99.90;;;;;;5084280;28;20447;-49
2023/10/10 07:48:53;;;;;;;21.60;9.83;;;14.40;99.90;;;;;;5082512;28;20480;-49
2023/10/10 07:51:27;;;;;;;18.33;9.57;;;14.40;99.90;;;;;;5084869;28;20962;-49
2023/10/10 07:54:00;;;;;;;21.03;9.30;;;14.40;99.90;;;;;;5089146;28;20459;-50
2023/10/10 07:56:30;;;;;;;19.90;8.70;;;14.50;99.90;;;;;;5084013;28;20546;-48
2023/10/10 07:58:57;;;;;;;18.40;8.53;;;14.50;99.90;;;;;;5083737;28;20815;-48
2023/10/10 08:01:23;;;;;;;17.47;8.90;;;14.50;99.90;;;;;;5084459;28;21069;-53
2023/10/10 08:03:49;;;;;;;13.77;8.27;;;14.60;99.90;;;;;;5084025;28;20467;-48
2023/10/10 08:06:21;;;;;;;28.63;13.17;;;14.70;99.90;;;;;;5084668;28;20495;-50
2023/10/10 08:08:49;;;;;;;41.83;21.60;;;14.70;99.90;;;;;;5085612;28;20814;-48
2023/10/10 08:11:25;;;;;;;15.20;8.90;;;14.80;99.90;;;;;;5086216;28;20456;-48
2023/10/10 08:13:51;;;;;;;19.27;9.30;;;14.90;99.90;;;;;;5085881;28;20508;-49
2023/10/10 08:16:29;;;;;;;13.37;8.33;;;14.90;99.90;;;;;;5090491;28;20466;-48
2023/10/10 08:18:55;;;;;;;16.00;8.87;;;14.90;99.90;;;;;;5087605;28;20446;-48
2023/10/10 08:21:24;;;;;;;20.70;10.87;;;14.90;99.90;;;;;;5086629;28;20444;-48
2023/10/10 08:23:56;;;;;;;17.70;9.27;;;15.00;99.90;;;;;;5086797;28;20447;-48
2023/10/10 08:26:32;;;;;;;17.43;9.00;;;15.10;99.90;;;;;;5087774;28;20434;-50
2023/10/10 08:28:57;;;;;;;17.23;10.00;;;15.10;99.90;;;;;;5085141;28;20997;-50
2023/10/10 08:31:23;;;;;;;16.50;9.27;;;15.10;99.90;;;;;;5089800;28;20511;-48
2023/10/10 08:33:49;;;;;;;17.10;10.00;;;15.10;99.90;;;;;;5086510;28;20330;-48
2023/10/10 08:36:25;;;;;;;17.57;9.67;;;15.20;99.90;;;;;;5087285;28;20696;-49
2023/10/10 08:38:54;;;;;;;21.57;9.77;;;15.20;99.90;;;;;;5087166;28;20189;-48
2023/10/10 08:41:26;;;;;;;15.63;9.60;;;15.20;99.90;;;;;;5086295;28;20439;-50
2023/10/10 08:43:53;;;;;;;16.63;9.77;;;15.20;99.90;;;;;;5088847;28;20451;-50
2023/10/10 08:46:23;;;;;;;18.40;9.80;;;15.30;99.90;;;;;;5086048;28;20429;-49
2023/10/10 08:48:49;;;;;;;22.33;10.97;;;15.30;99.90;;;;;;5085622;28;20435;-56
2023/10/10 08:51:15;;;;;;;21.67;10.60;;;15.40;99.90;;;;;;5088163;28;20485;-48
2023/10/10 08:53:43;;;;;;;17.10;9.83;;;15.40;99.90;;;;;;5086362;28;20462;-48
2023/10/10 08:56:09;;;;;;;18.20;10.90;;;15.40;99.90;;;;;;5086916;28;20446;-49
2023/10/10 08:58:36;;;;;;;26.43;11.63;;;15.30;99.90;;;;;;5085660;28;20194;-48
2023/10/10 09:01:02;;;;;;;28.67;10.83;;;15.50;99.90;;;;;;5088244;28;20690;-50
2023/10/10 09:03:28;;;;;;;23.10;10.50;;;15.60;99.90;;;;;;5088164;28;20437;-49
2023/10/10 09:05:55;;;;;;;18.57;10.70;;;15.60;99.90;;;;;;5085213;28;20939;-56
2023/10/10 09:08:26;;;;;;;25.10;11.60;;;15.60;99.90;;;;;;5090013;28;20186;-51
2023/10/10 09:10:56;;;;;;;17.93;10.20;;;15.60;99.90;;;;;;5084675;28;20447;-50
2023/10/10 09:13:21;;;;;;;18.60;10.33;;;15.60;99.90;;;;;;5086648;28;20917;-49
2023/10/10 09:15:54;;;;;;;18.00;10.30;;;15.80;99.90;;;;;;5088364;28;20448;-49
2023/10/10 09:18:23;;;;;;;14.73;9.33;;;15.90;99.90;;;;;;5094679;28;20178;-49
2023/10/10 09:20:50;;;;;;;11.43;8.80;;;16.00;99.90;;;;;;5095447;28;20778;-49
2023/10/10 09:23:27;;;;;;;14.03;9.23;;;16.10;99.90;;;;;;5095678;28;20412;-47
2023/10/10 09:26:12;;;;;;;11.60;8.57;;;16.20;99.90;;;;;;5095265;28;20478;-49
2023/10/10 09:29:03;;;;;;;14.87;9.93;;;16.40;99.90;;;;;;5085786;28;20451;-59
2023/10/10 09:31:31;;;;;;;13.87;8.80;;;16.30;90.40;;;;;;5086086;28;20515;-56
2023/10/10 09:34:03;;;;;;;12.43;8.80;;;16.20;98.50;;;;;;5086036;28;20469;-51
2023/10/10 09:36:29;;;;;;;14.03;8.97;;;16.20;99.90;;;;;;5085710;28;20510;-50
2023/10/10 09:39:09;;;;;;;10.23;7.53;;;16.20;99.90;;;;;;5086659;28;20432;-50
2023/10/10 09:41:37;;;;;;;12.77;8.13;;;16.30;99.90;;;;;;5086742;28;20437;-49
2023/10/10 09:49:42;;;;;;;15.97;9.73;;;16.80;99.90;;;;;;5083730;28;21002;-51
2023/10/10 10:00:46;;;;;;;12.40;8.47;;;17.10;1.00;;;;;;5084398;28;20799;-50
2023/10/10 10:03:31;;;;;;;13.90;8.33;;;17.20;1.00;;;;;;5084489;28;20942;-53
2023/10/10 10:09:09;;;;;;;8.53;6.90;;;17.60;1.00;;;;;;5084263;28;20537;-49
2023/10/10 10:12:12;;;;;;;11.40;6.60;;;17.70;99.90;;;;;;5086758;28;20955;-49
2023/10/10 10:15:05;;;;;;;12.77;8.47;;;17.70;99.90;;;;;;5083845;28;20970;-50
2023/10/10 10:17:49;;;;;;;10.10;8.00;;;17.80;99.90;;;;;;5083341;28;20439;-48
2023/10/10 10:20:34;;;;;;;8.77;7.27;;;17.80;1.00;;;;;;5082821;28;20828;-59
2023/10/10 10:23:00;;;;;;;11.43;6.93;;;17.80;99.90;;;;;;5081397;28;20436;-49
2023/10/10 10:25:31;;;;;;;10.53;6.53;;;17.70;1.00;;;;;;5084127;28;20477;-48
2023/10/10 10:28:10;;;;;;;10.20;6.07;;;17.60;1.00;;;;;;5083993;28;20439;-50
2023/10/10 10:30:46;;;;;;;6.83;5.70;;;17.50;1.00;;;;;;5082468;28;20468;-49
2023/10/10 10:33:12;;;;;;;8.30;5.13;;;17.40;99.90;;;;;;5085761;28;21052;-49
2023/10/10 10:35:48;;;;;;;12.80;5.93;;;17.40;99.90;;;;;;5083521;28;20524;-54
2023/10/10 10:38:17;;;;;;;9.10;5.80;;;17.40;99.90;;;;;;5085632;28;20446;-50
2023/10/10 10:40:46;;;;;;;10.87;6.40;;;17.30;99.90;;;;;;5084429;28;20980;-50
2023/10/10 10:43:20;;;;;;;6.93;5.90;;;17.30;99.90;;;;;;5083338;28;20437;-50
2023/10/10 10:45:51;;;;;;;7.23;4.93;;;17.40;99.90;;;;;;5081897;28;20440;-48
2023/10/10 10:48:29;;;;;;;6.93;4.90;;;17.60;99.90;;;;;;5083811;28;20472;-49
2023/10/10 10:51:03;;;;;;;10.30;5.13;;;17.70;1.00;;;;;;5077274;28;20441;-49
2023/10/10 10:53:38;;;;;;;5.40;4.90;;;17.70;1.00;;;;;;5073433;28;20960;-48
2023/10/10 11:01:18;;;;;;;7.10;5.00;;;18.90;99.90;;;;;;5073681;28;20453;-49
2023/10/10 11:03:44;;;;;;;6.23;4.50;;;20.40;1.00;;;;;;5073164;28;20424;-48
2023/10/10 11:06:14;;;;;;;5.80;5.20;;;21.80;1.00;;;;;;5073283;28;20188;-49
2023/10/10 11:13:55;;;;;;;9.10;4.83;;;25.50;1.00;;;;;;5073387;28;20466;-50
2023/10/10 11:16:28;;;;;;;6.60;4.97;;;26.00;1.00;;;;;;5073535;28;20417;-49
2023/10/10 11:18:57;;;;;;;10.53;4.80;;;26.00;1.00;;;;;;5073855;28;20417;-50
2023/10/10 11:21:28;;;;;;;5.83;4.20;;;26.20;1.00;;;;;;5073181;28;20432;-49
2023/10/10 11:23:58;;;;;;;8.07;3.67;;;26.60;1.00;;;;;;5072783;28;20463;-49
2023/10/10 11:26:24;;;;;;;8.53;4.20;;;27.00;1.00;;;;;;5073285;28;20433;-49
2023/10/10 11:28:49;;;;;;;10.43;4.37;;;27.50;1.00;;;;;;5088740;28;20505;-47
2023/10/10 11:31:23;;;;;;;5.80;3.40;;;28.00;1.00;;;;;;5073123;28;20420;-49
2023/10/10 11:33:55;;;;;;;6.90;3.63;;;27.80;1.00;;;;;;5072715;28;20210;-49
2023/10/10 11:36:37;;;;;;;8.00;3.90;;;27.50;1.00;;;;;;5073178;28;20400;-48
2023/10/10 11:39:44;;;;;;;5.40;3.67;;;27.00;1.00;;;;;;5073645;28;20397;-48
2023/10/10 11:41:55;;;;;;;6.90;2.70;;;26.80;1.00;;;;;;5076887;28;20429;-47
2023/10/10 11:44:21;;;;;;;4.27;2.70;;;27.00;1.00;;;;;;5077056;28;20412;-48
2023/10/10 11:46:49;;;;;;;9.33;2.90;;;26.90;1.00;;;;;;5076807;28;20190;-47
2023/10/10 11:49:16;;;;;;;3.63;2.90;;;26.90;1.00;;;;;;5077089;28;20417;-48
2023/10/10 11:51:42;;;;;;;2.63;2.43;;;27.00;1.00;;;;;;5076763;28;20418;-48
2023/10/10 11:54:07;;;;;;;5.70;2.30;;;27.20;1.00;;;;;;5076590;28;20503;-48
2023/10/10 11:56:36;;;;;;;6.80;2.73;;;27.20;1.00;;;;;;5076407;28;20182;-48
2023/10/10 11:59:09;;;;;;;3.27;2.50;;;27.10;1.00;;;;;;5076445;28;20182;-48
2023/10/10 12:01:54;;;;;;;4.50;2.10;;;27.40;1.00;;;;;;5076734;28;20412;-49
2023/10/10 12:04:32;;;;;;;4.27;2.30;;;27.50;1.00;;;;;;5078846;28;20452;-49
2023/10/10 12:07:04;;;;;;;4.70;2.80;;;26.90;1.00;;;;;;5086637;28;20438;-49
2023/10/10 12:09:30;;;;;;;5.90;2.53;;;26.70;1.00;;;;;;5087676;28;20868;-49
2023/10/10 12:11:59;;;;;;;6.93;2.60;;;27.20;1.00;;;;;;5086900;28;20484;-48
2023/10/10 12:14:31;;;;;;;3.80;2.63;;;27.50;1.00;;;;;;5088221;28;20300;-48
2023/10/10 12:16:58;;;;;;;5.97;2.23;;;27.20;1.00;;;;;;5087065;28;20502;-49
2023/10/10 12:19:36;;;;;;;5.53;3.10;;;26.30;1.00;;;;;;5087587;28;20539;-52
2023/10/10 12:22:15;;;;;;;5.07;2.80;;;25.50;1.00;;;;;;5084686;28;20488;-50
2023/10/10 12:24:41;;;;;;;18.13;4.33;;;24.30;1.00;;;;;;5087403;28;20499;-49
2023/10/10 12:27:08;;;;;;;5.30;2.97;;;23.50;1.00;;;;;;5085485;28;20479;-49
2023/10/10 12:29:40;;;;;;;3.93;3.00;;;23.00;1.00;;;;;;5088141;28;20276;-49
2023/10/10 12:32:15;;;;;;;6.73;3.27;;;22.50;1.00;;;;;;5085965;28;20436;-50
2023/10/10 12:34:43;;;;;;;8.67;2.80;;;22.10;1.00;;;;;;5086458;28;20471;-51
2023/10/10 12:37:09;;;;;;;3.43;2.60;;;22.20;1.00;;;;;;5087922;28;20771;-51
2023/10/10 12:39:37;;;;;;;3.70;2.90;;;22.90;1.00;;;;;;5084686;28;20589;-51
2023/10/10 12:42:02;;;;;;;4.10;3.37;;;23.00;1.00;;;;;;5087538;28;20259;-51
2023/10/10 12:44:28;;;;;;;3.87;2.90;;;22.70;1.00;;;;;;5083270;28;21200;-51
2023/10/10 12:46:58;;;;;;;4.40;3.50;;;22.40;1.00;;;;;;5087930;28;20653;-50
2023/10/10 12:49:28;;;;;;;8.13;3.50;;;22.10;1.00;;;;;;5086278;28;20756;-51
2023/10/10 12:51:57;;;;;;;10.17;3.83;;;22.00;1.00;;;;;;5084876;28;20458;-51
2023/10/10 12:54:27;;;;;;;6.10;3.80;;;21.90;1.00;;;;;;5084912;28;20466;-52
2023/10/10 12:57:01;;;;;;;5.63;3.40;;;21.80;1.00;;;;;;5083810;28;20875;-50
2023/10/10 12:59:28;;;;;;;7.07;3.40;;;21.80;1.00;;;;;;5085843;28;20530;-53
2023/10/10 13:01:59;;;;;;;5.33;4.13;;;21.80;1.00;;;;;;5087945;28;20540;-52
2023/10/10 13:04:32;;;;;;;4.50;3.87;;;21.70;1.00;;;;;;5085168;28;20809;-51
2023/10/10 13:07:05;;;;;;;9.27;4.40;;;21.50;1.00;;;;;;5086709;28;20447;-50
2023/10/10 13:09:32;;;;;;;5.80;4.23;;;21.20;1.00;;;;;;5087471;28;20431;-52
2023/10/10 13:11:57;;;;;;;5.87;4.50;;;21.00;1.00;;;;;;5084842;28;20446;-51
2023/10/10 13:14:25;;;;;;;7.60;4.83;;;20.90;1.00;;;;;;5086783;28;20471;-51
2023/10/10 13:17:01;;;;;;;8.53;5.00;;;20.70;1.00;;;;;;5084500;28;20313;-50
2023/10/10 13:19:27;;;;;;;8.70;5.10;;;20.70;1.00;;;;;;5085433;28;20953;-52
2023/10/10 13:21:52;;;;;;;7.60;4.70;;;20.60;1.00;;;;;;5086703;28;20451;-50
2023/10/10 13:24:18;;;;;;;6.83;5.43;;;20.70;1.00;;;;;;5085536;28;20229;-52
2023/10/10 13:26:49;;;;;;;6.37;5.20;;;20.60;1.00;;;;;;5087113;28;20669;-50
2023/10/10 13:29:16;;;;;;;13.30;5.53;;;20.50;1.00;;;;;;5084233;28;20449;-50
2023/10/10 13:31:44;;;;;;;7.27;5.47;;;20.40;1.00;;;;;;5087322;28;20443;-51
2023/10/10 13:34:10;;;;;;;8.90;5.63;;;20.20;1.00;;;;;;5085444;28;20511;-50
2023/10/10 13:36:36;;;;;;;6.83;5.67;;;20.00;1.00;;;;;;5084395;28;20521;-51
2023/10/10 13:39:06;;;;;;;9.30;6.40;;;19.90;1.00;;;;;;5086236;28;20485;-51
2023/10/10 13:41:35;;;;;;;6.97;5.60;;;19.70;1.00;;;;;;5084891;28;20455;-50
2023/10/10 13:44:03;;;;;;;13.53;7.90;;;19.60;1.00;;;;;;5086153;28;20439;-51
2023/10/10 13:46:37;;;;;;;10.57;7.43;;;19.50;1.00;;;;;;5085474;28;20432;-51
2023/10/10 13:49:08;;;;;;;14.10;8.20;;;19.40;99.90;;;;;;5083797;28;20513;-51
2023/10/10 13:51:40;;;;;;;17.73;8.43;;;19.30;99.90;;;;;;5086138;28;20841;-51
2023/10/10 13:54:06;;;;;;;9.73;7.70;;;19.20;99.90;;;;;;5085734;28;20494;-50
2023/10/10 13:56:32;;;;;;;9.17;6.80;;;19.10;99.90;;;;;;5084197;28;20432;-50
2023/10/10 13:59:01;;;;;;;8.90;7.30;;;19.00;99.90;;;;;;5086665;28;20443;-51
2023/10/10 14:01:36;;;;;;;13.40;7.93;;;18.90;99.90;;;;;;5083552;28;20224;-51
2023/10/10 14:04:26;;;;;;;16.67;7.30;;;18.80;1.00;;;;;;5084740;28;20438;-51
2023/10/10 14:06:53;;;;;;;11.27;7.50;;;18.80;1.00;;;;;;5088041;28;20447;-50
2023/10/10 14:09:24;;;;;;;11.70;7.90;;;18.80;1.00;;;;;;5094614;28;20415;-49
2023/10/10 14:11:51;;;;;;;8.70;7.57;;;18.80;1.00;;;;;;5094398;28;20427;-51
2023/10/10 14:14:18;;;;;;;12.73;8.40;;;18.90;1.00;;;;;;5094496;28;20461;-50
2023/10/10 14:16:43;;;;;;;12.23;8.27;;;18.90;1.00;;;;;;5094065;28;20420;-50
2023/10/10 14:19:09;;;;;;;12.67;7.57;;;18.90;1.00;;;;;;5094586;28;20408;-50
2023/10/10 14:21:38;;;;;;;14.57;9.50;;;19.00;1.00;;;;;;5093873;28;20634;-50
2023/10/10 14:24:07;;;;;;;12.40;9.67;;;19.00;1.00;;;;;;5093546;28;20254;-52
2023/10/10 14:26:34;;;;;;;16.63;10.50;;;19.10;99.90;;;;;;5093934;28;20895;-49
2023/10/10 14:29:05;;;;;;;10.70;8.70;;;19.10;99.90;;;;;;5093986;28;20415;-50
2023/10/10 14:31:31;;;;;;;13.80;9.97;;;19.00;99.90;;;;;;5093895;28;20415;-50
2023/10/10 14:34:00;;;;;;;14.13;10.43;;;18.90;1.00;;;;;;5093620;28;20557;-50
2023/10/10 14:36:30;;;;;;;14.27;9.37;;;18.90;1.00;;;;;;5093600;28;20427;-50
2023/10/10 14:38:57;;;;;;;18.90;12.10;;;18.80;1.00;;;;;;5093739;28;20423;-50
2023/10/10 14:41:30;;;;;;;19.00;10.73;;;18.80;1.00;;;;;;5094151;28;20427;-50
2023/10/10 14:44:00;;;;;;;16.63;12.57;;;18.80;1.00;;;;;;5094043;28;20456;-49
2023/10/10 14:46:32;;;;;;;16.13;12.10;;;18.80;13.30;;;;;;5094213;28;20411;-51
2023/10/10 14:49:06;;;;;;;18.27;12.40;;;18.70;15.90;;;;;;5093994;28;20408;-50
2023/10/10 14:51:33;;;;;;;23.40;15.63;;;18.70;1.00;;;;;;5093529;28;20980;-51
2023/10/10 14:54:06;;;;;;;21.03;15.27;;;18.70;1.80;;;;;;5093351;28;20470;-50
2023/10/10 14:56:36;;;;;;;27.20;16.03;;;18.70;1.00;;;;;;5093451;28;20421;-50
2023/10/10 14:59:06;;;;;;;25.63;17.27;;;18.60;1.00;;;;;;5093659;28;20419;-50
2023/10/10 15:01:36;;;;;;;26.60;17.40;;;18.60;25.80;;;;;;5093599;28;20407;-50
2023/10/10 15:04:06;;;;;;;26.67;16.80;;;18.50;35.50;;;;;;5093137;28;20422;-50
2023/10/10 15:06:33;;;;;;;26.07;18.80;;;18.50;98.20;;;;;;5093841;28;20523;-51
2023/10/10 15:09:00;;;;;;;26.27;20.07;;;18.40;99.90;;;;;;5093643;28;20418;-50
2023/10/10 15:11:29;;;;;;;31.07;19.50;;;18.40;99.90;;;;;;5093316;28;20909;-49
2023/10/10 15:13:56;;;;;;;32.03;20.17;;;18.30;99.90;;;;;;5093848;28;20459;-50
2023/10/10 15:16:23;;;;;;;29.20;20.17;;;18.20;1.00;;;;;;5097310;28;20425;-55
2023/10/10 15:18:52;;;;;;;28.47;19.93;;;18.10;45.30;;;;;;5097956;28;20417;-49
2023/10/10 15:21:19;;;;;;;33.07;20.40;;;18.20;39.70;;;;;;5097472;28;20427;-50
2023/10/10 15:23:46;;;;;;;30.77;21.03;;;18.10;46.40;;;;;;5097555;28;20545;-48
2023/10/10 15:26:17;;;;;;;36.40;20.70;;;18.10;99.90;;;;;;5097856;28;20471;-50
2023/10/10 15:28:44;;;;;;;36.30;22.07;;;18.10;35.40;;;;;;5098044;28;20414;-50
2023/10/10 15:31:10;;;;;;;34.50;21.57;;;18.00;92.30;;;;;;5097603;28;20415;-51
2023/10/10 15:33:36;;;;;;;28.60;20.73;;;18.00;99.90;;;;;;5097869;28;20454;-50
2023/10/10 15:36:06;;;;;;;35.63;23.20;;;18.10;99.90;;;;;;5097631;28;20426;-50
2023/10/10 15:38:32;;;;;;;32.00;21.77;;;18.10;99.90;;;;;;5097079;28;20418;-49
2023/10/10 15:41:05;;;;;;;36.83;21.53;;;18.10;58.80;;;;;;5097362;28;20413;-50